Latest Weather Observations for Barimunya

IDW60801

Issued at 9:03 am WST Sunday 19 April 2015 (issued every 30 minutes, with the page automatically refreshed every 10 minutes)

About weather observations | Map of weather stations | Latest weather observations for WA | Other Formats
Station Details ID: 505053 Name: BARIMUNYA Lat: -22.67 Lon: 119.16 Height: 629.17 m
Data from the previous 72 hours. | See also: Recent months for locations in Western Australia
Date/Time
WST
Temp
°C
App
Temp
°C
Dew
Point
Rel
Hum
%
Delta-T
°C
Wind Press
QNH
hPa
Press
MSL
hPa
Rain
since 9 am
mm
Dir
 
Spd
km/h
Gust
km/h
Spd
kts
Gust
kts
19/09:00am 19.0 15.5 8.9 52 5.4 ESE 17 26 9 14 1022.5 1018.7 0.0
19/08:30am 18.7 14.3 8.9 53 5.3 ESE 22 28 12 15 1022.0 1018.2 0.0
19/08:00am 18.9 14.0 8.3 50 5.6 SE 24 32 13 17 1021.7 1017.9 0.0
19/07:30am 19.1 14.3 7.5 47 6.1 SE 22 30 12 16 1021.2 1017.4 0.0
19/07:00am 19.0 14.1 6.8 45 6.3 SE 22 30 12 16 1020.4 1016.6 0.0
19/06:30am 19.0 14.6 6.5 44 6.4 SE 19 26 10 14 1020.1 1016.3 0.0
19/06:00am 19.2 14.2 6.3 43 6.6 ESE 22 32 12 17 1019.7 1015.9 0.0
19/05:30am 19.3 14.2 6.1 42 6.8 ESE 22 33 12 18 1019.4 1015.6 0.0
19/05:00am 19.4 14.3 5.8 41 6.9 ESE 22 32 12 17 1019.5 1015.7 0.0
19/04:30am 19.6 14.0 5.3 39 7.2 ESE 24 39 13 21 1019.4 1015.6 0.0
19/04:00am 19.7 13.6 5.0 38 7.4 ESE 26 37 14 20 1018.9 1015.1 0.0
19/03:30am 20.0 14.7 4.9 37 7.6 ESE 22 33 12 18 1019.3 1015.4 0.0
19/03:00am 20.2 14.8 4.7 36 7.8 ESE 22 32 12 17 1019.6 1015.8 0.0
19/02:30am 20.2 15.3 5.1 37 7.6 ESE 20 28 11 15 1019.9 1016.1 0.0
19/02:00am 20.4 15.8 5.6 38 7.5 SE 19 24 10 13 1020.0 1016.2 0.0
19/01:30am 20.9 17.0 5.3 36 8.0 ESE 15 19 8 10 1020.1 1016.3 0.0
19/01:00am 21.0 17.5 5.4 36 8.0 E 13 17 7 9 1019.8 1016.0 0.0
19/12:30am 20.4 18.0 7.1 42 7.0 E 9 15 5 8 1019.9 1016.1 0.0
19/12:00am 18.8 19.7 13.0 69 3.4 CALM 0 0 0 0 1020.1 1016.3 0.0
 
Date/Time
WST
Temp
°C
App
Temp
°C
Dew
Point
Rel
Hum
%
Delta-T
°C
Wind Press
QNH
hPa
Press
MSL
hPa
Rain
since 9 am
mm
Dir
 
Spd
km/h
Gust
km/h
Spd
kts
Gust
kts
18/11:30pm 19.0 19.1 11.6 62 4.2 SSE 2 7 1 4 1020.3 1016.5 0.0
18/11:00pm 19.4 19.6 10.7 57 4.8 CALM 0 6 0 3 1020.8 1016.9 0.0
18/10:30pm 19.8 18.7 10.0 53 5.4 SSE 6 7 3 4 1021.2 1017.4 0.0
18/10:00pm 19.8 18.5 10.0 53 5.4 SSE 7 11 4 6 1021.5 1017.7 0.0
18/09:30pm 19.8 17.8 10.2 54 5.3 S 11 13 6 7 1021.6 1017.8 0.0
18/09:00pm 20.0 17.9 9.9 52 5.6 SSE 11 13 6 7 1021.6 1017.8 0.0
18/08:30pm 19.8 17.9 10.5 55 5.2 SE 11 15 6 8 1021.6 1017.8 0.0
18/08:00pm 20.5 16.8 10.3 52 5.7 ESE 20 28 11 15 1021.4 1017.6 0.0
18/07:30pm 21.1 18.5 12.0 56 5.2 ESE 17 22 9 12 1020.9 1017.1 0.0
18/07:00pm 20.8 19.5 12.5 59 4.8 SE 11 15 6 8 1020.5 1016.7 0.0
18/06:30pm 20.4 20.4 14.1 67 3.8 SE 7 11 4 6 1020.2 1016.4 0.0
18/06:00pm 20.1 20.2 14.5 70 3.3 SSE 7 9 4 5 1020.1 1016.3 0.0
18/05:30pm 20.1 19.5 14.7 71 3.2 SSE 11 15 6 8 1019.7 1015.9 0.0
18/05:00pm 20.9 18.3 13.1 61 4.6 SE 19 24 10 13 1019.5 1015.7 0.0
18/04:30pm 21.3 17.8 12.2 56 5.3 SE 22 28 12 15 1019.3 1015.4 0.0
18/04:00pm 22.3 18.6 11.4 50 6.2 SE 22 30 12 16 1018.9 1015.1 0.0
18/03:30pm 22.6 18.8 11.0 48 6.6 SE 22 30 12 16 1018.9 1015.1 0.0
18/03:00pm 22.7 18.9 11.1 48 6.6 SE 22 32 12 17 1018.8 1015.0 0.0
18/02:30pm 22.5 19.1 11.3 49 6.4 SE 20 28 11 15 1018.9 1015.1 0.0
18/02:00pm 22.4 19.0 11.2 49 6.4 SE 20 30 11 16 1019.1 1015.2 0.0
18/01:30pm 22.5 19.0 10.9 48 6.6 SE 20 28 11 15 1019.2 1015.3 0.0
18/01:00pm 22.3 18.8 10.8 48 6.5 ESE 20 30 11 16 1019.3 1015.4 0.0
18/12:30pm 22.1 18.7 10.6 48 6.5 SE 19 24 10 13 1019.7 1015.9 0.0
18/12:00pm 22.1 19.1 10.6 48 6.5 ESE 17 26 9 14 1020.2 1016.4 0.0
18/11:30am 22.2 18.6 10.7 48 6.5 SE 20 28 11 15 1020.1 1016.3 0.0
18/11:00am 21.3 18.7 10.8 51 5.9 SE 15 26 8 14 1020.5 1016.7 0.0
18/10:36am 20.6 15.4 10.4 52 5.7 SE 28 33 15 18 1019.8 1016.0 0.0
18/10:30am 20.4 15.7 10.5 53 5.5 SE 26 32 14 17 1020.1 1016.3 0.0
18/10:00am 20.7 16.7 10.5 52 5.7 SE 22 28 12 15 1020.8 1016.9 0.0
18/09:30am 20.8 17.7 10.3 51 5.9 SE 17 22 9 12 1021.1 1017.3 0.0
18/09:26am 20.7 17.3 10.5 52 5.7 ESE 19 22 10 12 1021.1 1017.3 0.0
18/09:09am 20.5 17.0 10.3 52 5.7 SE 19 24 10 13 1021.0 1017.2 0.0
18/09:00am 20.2 16.6 10.0 52 5.6 SE 19 24 10 13 1020.8 1016.9 0.0
18/08:30am 20.1 16.6 10.2 53 5.5 SE 19 22 10 12 1020.6 1016.8 0.0
18/08:00am 20.0 16.3 10.1 53 5.5 SE 20 26 11 14 1020.0 1016.2 0.0
18/07:41am 19.8 16.8 10.8 56 5.0 SE 17 24 9 13 1019.9 1016.1 0.0
18/07:30am 19.7 16.4 10.9 57 4.9 ESE 19 24 10 13 1019.9 1016.1 0.0
18/07:22am 19.7 16.9 11.2 58 4.8 SE 17 24 9 13 1019.8 1016.0 0.0
18/07:10am 19.7 16.9 11.5 59 4.7 SE 17 24 9 13 1019.6 1015.8 0.0
18/07:00am 19.9 17.0 11.1 57 5.0 ESE 17 24 9 13 1019.4 1015.6 0.0
18/06:40am 20.0 16.9 11.7 59 4.7 ESE 19 22 10 12 1019.1 1015.2 0.0
18/06:30am 20.1 18.3 12.1 60 4.6 ESE 13 20 7 11 1019.1 1015.2 0.0
18/06:00am 20.2 18.6 12.9 63 4.3 SE 13 20 7 11 1018.7 1014.9 0.0
18/05:30am 20.1 17.8 13.1 64 4.1 SE 17 22 9 12 1018.5 1014.7 0.0
18/05:00am 20.4 18.1 12.9 62 4.4 SE 17 24 9 13 1018.3 1014.5 0.0
18/04:30am 20.6 17.8 12.6 60 4.7 ESE 19 24 10 13 1018.3 1014.5 0.0
18/04:00am 20.6 19.3 12.6 60 4.6 SE 11 17 6 9 1018.6 1014.8 0.0
18/03:30am 20.7 19.1 12.7 60 4.7 ESE 13 17 7 9 1018.7 1014.9 0.0
18/03:00am 20.7 19.1 12.9 61 4.6 SE 13 20 7 11 1018.9 1015.1 0.0
18/02:30am 20.8 19.2 12.8 60 4.7 SE 13 17 7 9 1018.9 1015.1 0.0
18/02:00am 20.7 19.1 12.7 60 4.7 SE 13 19 7 10 1018.9 1015.1 0.0
18/01:30am 20.7 19.1 12.7 60 4.7 SE 13 19 7 10 1019.1 1015.2 0.0
18/01:00am 20.6 18.6 12.8 61 4.5 SE 15 19 8 10 1019.1 1015.2 0.0
18/12:30am 20.6 19.0 12.8 61 4.6 SE 13 17 7 9 1019.3 1015.4 0.0
18/12:00am 20.7 18.4 12.9 61 4.6 SE 17 24 9 13 1019.5 1015.7 0.0
 
Date/Time
WST
Temp
°C
App
Temp
°C
Dew
Point
Rel
Hum
%
Delta-T
°C
Wind Press
QNH
hPa
Press
MSL
hPa
Rain
since 9 am
mm
Dir
 
Spd
km/h
Gust
km/h
Spd
kts
Gust
kts
17/11:30pm 20.7 18.4 12.9 61 4.6 SE 17 22 9 12 1019.6 1015.8 0.0
17/11:00pm 20.9 18.5 12.8 60 4.7 SE 17 20 9 11 1019.9 1016.1 0.0
17/10:30pm 21.0 18.7 12.9 60 4.7 SE 17 22 9 12 1020.1 1016.3 0.0
17/10:00pm 21.3 18.7 13.2 60 4.8 ESE 19 24 10 13 1020.2 1016.4 0.0
17/09:30pm 21.6 19.0 13.2 59 5.0 ESE 19 24 10 13 1020.2 1016.4 0.0
17/09:00pm 22.0 19.3 13.4 58 5.1 ESE 20 26 11 14 1020.1 1016.3 0.0
17/08:30pm 22.2 20.1 13.5 57 5.2 SE 17 20 9 11 1020.0 1016.2 0.0
17/08:00pm 22.4 20.3 13.5 57 5.3 SE 17 24 9 13 1019.8 1016.0 0.0
17/07:30pm 22.4 20.3 13.7 58 5.2 SE 17 22 9 12 1019.4 1015.6 0.0
17/07:00pm 22.5 21.0 14.1 59 5.0 SE 15 20 8 11 1019.2 1015.3 0.0
17/06:30pm 22.5 21.5 14.6 61 4.8 SSE 13 17 7 9 1018.9 1015.1 0.0
17/06:00pm 22.9 21.8 14.2 58 5.2 SE 13 17 7 9 1018.5 1014.7 0.0
17/05:30pm 23.3 21.3 14.0 56 5.6 SE 17 20 9 11 1018.0 1014.2 0.0
17/05:00pm 23.4 21.5 14.1 56 5.6 SE 17 22 9 12 1017.7 1013.8 0.0
17/04:30pm 23.6 21.4 14.3 56 5.6 SE 19 22 10 12 1017.5 1013.6 0.0
17/04:00pm 23.7 21.5 14.4 56 5.6 SE 19 24 10 13 1017.2 1013.4 0.0
17/03:30pm 24.3 22.1 14.4 54 6.0 SE 19 26 10 14 1017.4 1013.5 0.0
17/03:00pm 24.7 23.0 14.8 54 6.1 SE 17 22 9 12 1017.5 1013.6 0.0
17/02:30pm 24.1 22.3 14.5 55 5.8 SE 17 24 9 13 1017.7 1013.8 0.0
17/02:00pm 24.7 22.9 14.5 53 6.2 SE 17 24 9 13 1017.9 1014.0 0.0
17/01:30pm 24.3 22.9 14.4 54 6.0 SE 15 24 8 13 1018.1 1014.3 0.0
17/01:00pm 24.5 23.5 14.6 54 6.0 E 13 20 7 11 1018.6 1014.8 0.0
17/12:30pm 24.0 21.8 14.4 55 5.8 ESE 19 28 10 15 1019.1 1015.2 0.0
17/12:00pm 22.8 20.3 14.1 58 5.2 ESE 20 28 11 15 1019.6 1015.8 0.0
17/11:30am 22.7 20.5 14.3 59 5.1 E 19 26 10 14 1020.1 1016.3 0.0
17/11:00am 22.5 20.0 14.1 59 5.0 ESE 20 32 11 17 1020.8 1016.9 0.0
17/10:30am 22.2 20.3 14.1 60 4.9 ESE 17 26 9 14 1021.3 1017.5 0.0
17/10:00am 21.1 18.7 13.8 63 4.3 ESE 19 26 10 14 1021.8 1018.0 0.0
17/09:30am 20.9 18.2 13.6 63 4.3 ESE 20 28 11 15 1021.6 1017.8 0.0
17/09:00am 20.9 18.2 13.6 63 4.3 ESE 20 28 11 15 1021.6 1017.8 0.0
17/08:30am 21.3 18.7 13.7 62 4.5 ESE 20 30 11 16 1021.7 1017.9 0.0
17/08:00am 19.9 17.2 13.4 66 3.8 SE 20 30 11 16 1021.5 1017.7 0.0
17/07:30am 19.1 16.5 13.3 69 3.4 SE 19 22 10 12 1021.5 1017.7 0.0
17/07:00am 18.6 15.8 13.2 71 3.1 SE 20 26 11 14 1021.2 1017.4 0.0
17/06:30am 18.5 15.7 13.1 71 3.1 SE 20 28 11 15 1021.2 1017.4 0.0
17/06:00am 18.6 15.8 13.2 71 3.1 SE 20 28 11 15 1020.8 1016.9 0.0
17/05:30am 18.7 15.9 13.3 71 3.2 SE 20 30 11 16 1020.8 1016.9 0.0
17/05:00am 18.8 14.9 13.4 71 3.1 SE 26 33 14 18 1020.5 1016.7 0.0
17/04:30am 19.0 15.2 13.6 71 3.2 SE 26 33 14 18 1020.2 1016.4 0.0
17/04:00am 19.0 15.2 13.6 71 3.2 SE 26 35 14 19 1020.4 1016.6 0.0
17/03:30am 19.1 15.4 13.9 72 3.1 SE 26 35 14 19 1020.4 1016.6 0.0
17/03:00am 19.4 15.7 14.0 71 3.2 SE 26 37 14 20 1020.4 1016.6 0.0
17/02:30am 19.7 16.8 14.1 70 3.3 SE 22 32 12 17 1020.5 1016.7 0.0
17/02:00am 19.9 16.2 14.0 69 3.5 SE 26 35 14 19 1020.4 1016.6 0.0
17/01:30am 20.3 16.3 14.2 68 3.6 SE 28 35 15 19 1020.8 1016.9 0.0
17/01:00am 20.8 18.4 14.5 67 3.8 SE 20 28 11 15 1020.9 1017.1 0.0
17/12:30am 21.3 18.6 14.7 66 4.0 SE 22 33 12 18 1020.9 1017.1 0.0
17/12:00am 21.7 17.9 14.8 65 4.2 SE 28 37 15 20 1020.9 1017.1 0.0
 
Date/Time
WST
Temp
°C
App
Temp
°C
Dew
Point
Rel
Hum
%
Delta-T
°C
Wind Press
QNH
hPa
Press
MSL
hPa
Rain
since 9 am
mm
Dir
 
Spd
km/h
Gust
km/h
Spd
kts
Gust
kts
16/11:30pm 22.5 18.8 14.9 62 4.6 SE 28 35 15 19 1020.5 1016.7 0.0
16/11:00pm 23.1 19.9 15.2 61 4.8 SSE 26 33 14 18 1020.5 1016.7 0.0
16/10:30pm 24.0 20.8 15.2 58 5.4 SE 26 35 14 19 1020.3 1016.5 0.0
16/10:00pm 25.4 23.3 15.1 53 6.4 SSE 20 24 11 13 1020.4 1016.6 0.0
16/09:30pm 26.5 24.4 14.6 48 7.3 SE 19 26 10 14 1020.4 1016.6 0.0
16/09:00pm 26.4 27.3 15.1 49 7.0 SE 4 7 2 4 1020.3 1016.5 0.0
16/08:30pm 26.7 27.2 15.1 49 7.2 SE 6 7 3 4 1020.3 1016.5 0.0
16/08:00pm 26.7 26.9 14.8 48 7.3 SE 7 7 4 4 1020.0 1016.2 0.0
16/07:30pm 27.2 27.4 14.6 46 7.8 SE 7 9 4 5 1019.7 1015.9 0.0
16/07:00pm 27.6 27.8 14.6 45 8.0 SE 7 9 4 5 1019.4 1015.6 0.0
16/06:30pm 27.9 28.1 14.2 43 8.4 E 6 9 3 5 1019.1 1015.2 0.0
16/06:00pm 28.1 29.2 13.6 41 8.8 CALM 0 0 0 0 1018.8 1015.0 0.0
16/05:30pm 28.2 29.0 12.5 37 9.4 CALM 0 0 0 0 1018.6 1014.8 0.0
16/05:00pm 28.3 29.0 13.4 40 9.1 NNE 2 7 1 4 1018.3 1014.5 0.0
16/04:30pm 28.5 27.5 12.4 37 9.7 NNE 9 13 5 7 1018.2 1014.4 0.0
16/04:00pm 28.9 28.3 13.6 39 9.3 ENE 9 13 5 7 1018.0 1014.2 0.0
16/03:30pm 28.9 28.6 14.3 40 9.0 ENE 9 13 5 7 1018.2 1014.4 0.0
16/03:00pm 28.7 27.7 14.5 42 8.8 ENE 13 19 7 10 1018.3 1014.5 0.0
16/02:30pm 29.3 29.0 14.3 40 9.3 ENE 9 17 5 9 1018.1 1014.3 0.0
16/02:00pm 29.4 28.1 14.8 41 9.1 E 15 26 8 14 1018.2 1014.4 0.0
16/01:30pm 29.0 28.3 15.5 44 8.5 ESE 13 24 7 13 1018.5 1014.7 0.0
16/01:00pm 28.4 27.2 16.0 47 7.8 ESE 17 22 9 12 1018.6 1014.8 0.0
16/12:30pm 27.3 26.7 16.6 52 6.8 SSE 15 20 8 11 1019.2 1015.3 0.0
16/12:00pm 26.3 24.9 16.5 54 6.2 SE 19 26 10 14 1019.6 1015.8 0.0
16/11:30am 25.5 23.9 16.6 58 5.6 SE 20 30 11 16 1020.1 1016.3 0.0
16/11:00am 25.0 23.2 17.0 61 5.1 SE 22 28 12 15 1020.5 1016.7 0.0
16/10:30am 23.8 22.3 16.8 65 4.4 SSE 20 26 11 14 1020.9 1017.1 0.0
16/10:00am 23.6 21.4 16.9 66 4.2 SE 24 30 13 16 1021.1 1017.3 0.0
16/09:30am 23.2 20.9 16.7 67 4.1 SE 24 32 13 17 1021.0 1017.2 0.0

Other Formats:

Comma delimited format used in spreadsheet applications
http://www.bom.gov.au/fwo/IDW60801/IDW60801.99313.axf

JavaScript Object Notation format (JSON) in row-major order
http://www.bom.gov.au/fwo/IDW60801/IDW60801.99313.json